TISTTFFR

Guest
Details From TIST - St Thomas - Cyril E King
To TFFR - Pointe A Pitre Le Raizet
Flight Number -
Tags Generated
Created
Modified
Stats Distance 233 nm / 431 km
Max Altitude 0 ft / 0 m
Waypoints 3
Social Downloads 2
Likes 0
Share VATSIM

Download

Looking for another format? Having issues loading an existing format? Contact us
Advertisement - Login to hide

Notes

Generated

Route

TIST PPR37 TFFR

ID Type Via Altitude Latitude Longitude Leg Dist Tot Dist Heading (true) Name
O TIST APT - 0 ft / 0 m 18.33687˚ -64.98343˚ - 0 nm - -
PPR37 FIX - 0 ft / 0 m 16.32552˚ -61.64417˚ 226 nm 226 nm 122° / 123° -
O TFFR APT - 0 ft / 0 m 16.26830˚ -61.54794˚ 6 nm 232 nm 122° / 122° -

Altitude Profile

Advertisement - Login to hide

Weather


0- 5 10 15 20 25 30 35+ Temperature / ° C

Clouds and Precipitation
Forecast for 2018-05-26 00:00 UTC. Updated 3 hours ago

Ground ~20,000 ft ~40,000 ft Winds

TIST

Details ICAO TIST (STT)
Name St Thomas - Cyril E King
Region USA (U.S. Virgin Islands)
Timezone Unknown (UTC+0.0)
Stats Elevation 23 ft / 7 m (AMSL)
Location 18.337300° -64.973344°
Runways 1
Magnetic Variation 13.653° W

METAR

TIST 260153Z AUTO 09009KT 10SM CLR A3004

Decode

TAF

TAF TIST 252339Z 2600/2624 09008KT P6SM FEW025 SCT050 FM260800 09010KT P6SM VCSH SCT025 SCT040 FM261300 13014KT P6SM SCT035

Decode

Departure Runways

ID Width Length Bearing (true) Bearing (mag) Surface Threshold Offset Overrun Length
10 151 ft / 46 m 6,992 ft / 2,131 m 87.44° 101.09° Asphalt 0 ft / 0 m 200 ft / 61 m
28 151 ft / 46 m 6,992 ft / 2,131 m 267.44° 281.09° Asphalt 2,300 ft / 701 m 200 ft / 61 m

TFFR

Details ICAO TFFR (PTP)
Name Pointe a Pitre Le Raizet
Region France (Guadeloupe, Martinique, Saint Barthélemy, Saint Martin)
Timezone America/Guadeloupe (UTC-4.0)
Stats Elevation 35 ft / 11 m (AMSL)
Location 16.265306° -61.531808°
Runways 1
Magnetic Variation 14.868° W

METAR

TFFR 260200Z AUTO 10009KT 9999 -RA FEW021 SCT041 BKN056 25/22 Q1017 TEMPO 4000 SHRA BKN018TCU

Decode

TAF

TAF TFFR 252200Z 2600/2624 VRB05KT 9999 SCT025 TEMPO 2602/2624 4000 SHRA BKN018TCU BECMG 2610/2612 10015KT PROB30 TEMPO 2612/2624 10015G25KT 1000 TSRA SCT005 BKN015CB

Decode

Destination Runways

ID Width Length Bearing (true) Bearing (mag) Surface Threshold Offset Overrun Length
11 148 ft / 45 m 11,513 ft / 3,509 m 100.94° 115.81° Asphalt 0 ft / 0 m 0 ft / 0 m
29 148 ft / 45 m 11,513 ft / 3,509 m 280.95° 295.82° Asphalt 0 ft / 0 m 0 ft / 0 m

Approach Navaids

Runway Type Ident Frequency Range Bearing (true) Bearing (mag) Slope Elevation
11 Localiser PP 110.30 MHz 18 nm / 33 km 100.95° 115.82° - 36 ft / 11 m (AMSL)
11 Glidescope PP 110.30 MHz 10 nm / 19 km 100.94° 115.81° 3.20° 36 ft / 11 m (AMSL)